Churchland, North Carolina
Current Conditions -  °F | °C
As of 10:15 AM on Wednesday 22 Oct 2014 (Local Time) from KEXX Reporting Station
Clear Clear  
Wind Chill: 13°   Ceiling: Unl
Heat Index: 13°   Visibility: 10mi
Dew Point:   Wind: 6mph
Humidity: 54%   Direction: 360°N
Pressure: 30.06"   Gusts: NA
Location:  35.7974°N, 80.2541°W
Report Text: KEXX 221415Z AUTO 36005KT 10SM CLR 13/03 A3006 RMK AO2 T01250033
Loading
Personal Weather Stations






























Interactive Weather Map
Tropical Storm Tracking
New forecast layout! Learn more

10-Day Weather Forecast

Advertisements
Track Severe Weather on mobile